Time;durP1;ratioP1;P1;durP2;ratioP2;P2;SDS_P1;SDS_P2;PMS_P1;PMS_P2;Temp;Humidity;BMP_temperature;BMP_pressure;BME280_temperature;BME280_humidity;BME280_pressure;Samples;Min_cycle;Max_cycle;Signal;HPM_P1;HPM_P2
2023/10/14 00:00:40;;;;;;;1.30;0.60;;;;;;;17.41;76.19;100067.69;5092429;28;20015;-70
2023/10/14 00:03:20;;;;;;;3.30;0.60;;;;;;;17.42;77.16;100077.75;5091822;28;20709;-70
2023/10/14 00:05:45;;;;;;;3.15;0.60;;;;;;;17.42;77.26;100091.78;5102716;28;20039;-70
2023/10/14 00:08:12;;;;;;;1.48;0.60;;;;;;;17.42;76.88;100125.44;5095958;28;20026;-70
2023/10/14 00:10:39;;;;;;;0.98;0.50;;;;;;;17.29;77.26;100117.03;5092902;28;20757;-70
2023/10/14 00:13:05;;;;;;;1.70;0.60;;;;;;;17.29;77.19;100095.47;5104822;28;20479;-70
2023/10/14 00:15:31;;;;;;;1.63;0.80;;;;;;;17.17;76.99;100097.97;5101037;28;20046;-69
2023/10/14 00:17:58;;;;;;;1.77;0.60;;;;;;;17.25;77.02;100091.63;5101623;28;20097;-70
2023/10/14 00:20:23;;;;;;;2.55;0.50;;;;;;;17.23;76.84;100085.50;5098840;28;20046;-70
2023/10/14 00:22:49;;;;;;;1.75;0.50;;;;;;;17.24;76.93;100114.38;5114395;28;20386;-70
2023/10/14 00:25:23;;;;;;;1.92;0.55;;;;;;;17.19;76.94;100115.31;5093789;28;20036;-70
2023/10/14 00:27:50;;;;;;;1.88;0.70;;;;;;;17.15;77.06;100094.66;5094143;28;20048;-69
2023/10/14 00:30:19;;;;;;;1.65;0.57;;;;;;;17.12;77.12;100104.53;5102040;28;20024;-69
2023/10/14 00:32:50;;;;;;;0.90;0.40;;;;;;;17.10;77.18;100112.44;5105827;28;20039;-70
2023/10/14 00:35:20;;;;;;;1.23;0.50;;;;;;;17.08;77.12;100130.72;5094974;28;20114;-70
2023/10/14 00:37:45;;;;;;;0.73;0.43;;;;;;;17.07;77.51;100159.91;5096819;28;20110;-69
2023/10/14 00:40:14;;;;;;;1.55;0.60;;;;;;;17.07;77.65;100165.50;5096889;28;20464;-69
2023/10/14 00:42:47;;;;;;;2.05;0.45;;;;;;;17.04;77.54;100172.56;5094694;28;20104;-69
2023/10/14 00:45:12;;;;;;;1.48;0.82;;;;;;;17.00;77.58;100165.91;5096064;28;20031;-69
2023/10/14 00:47:41;;;;;;;2.60;0.50;;;;;;;17.03;77.79;100170.09;5093684;28;20103;-69
2023/10/14 00:50:22;;;;;;;1.10;0.60;;;;;;;17.05;77.76;100174.22;5093757;28;20399;-69
2023/10/14 00:52:55;;;;;;;1.00;0.60;;;;;;;16.98;77.82;100157.00;5094107;28;20125;-69
2023/10/14 00:55:26;;;;;;;1.83;0.60;;;;;;;16.93;77.93;100169.13;5092870;28;20036;-69
2023/10/14 00:57:54;;;;;;;1.25;0.50;;;;;;;16.93;77.76;100171.09;5094966;28;20032;-69
2023/10/14 01:00:24;;;;;;;2.10;0.80;;;;;;;16.92;77.83;100167.47;5106778;28;20475;-69
2023/10/14 01:02:51;;;;;;;1.25;0.70;;;;;;;16.98;77.85;100172.97;5097180;28;20088;-69
2023/10/14 01:05:19;;;;;;;1.88;0.70;;;;;;;16.98;77.78;100185.03;5102297;28;20019;-69
2023/10/14 01:07:45;;;;;;;1.70;0.85;;;;;;;16.93;78.00;100183.16;5101052;28;20036;-68
2023/10/14 01:10:13;;;;;;;1.23;1.00;;;;;;;16.93;78.38;100188.75;5098667;28;20028;-69
2023/10/14 01:12:45;;;;;;;2.90;1.00;;;;;;;16.95;77.78;100196.03;5093476;28;20024;-69
2023/10/14 01:15:17;;;;;;;1.65;1.40;;;;;;;16.91;77.74;100210.69;5099602;28;20032;-69
2023/10/14 01:17:42;;;;;;;2.55;1.35;;;;;;;16.93;77.95;100227.16;5100457;28;20055;-69
2023/10/14 01:22:40;;;;;;;3.70;0.90;;;;;;;16.66;73.92;100234.41;5096290;28;20046;-69
2023/10/14 01:25:12;;;;;;;2.00;0.90;;;;;;;16.67;73.82;100243.63;5109965;28;20826;-69
2023/10/14 01:27:42;;;;;;;3.08;0.85;;;;;;;16.57;73.55;100246.63;5098642;28;20036;-68
2023/10/14 01:30:11;;;;;;;4.68;1.00;;;;;;;16.46;73.48;100259.97;5107374;28;20482;-69
2023/10/14 01:35:12;;;;;;;3.15;0.95;;;;;;;16.51;73.69;100271.09;5114156;28;20024;-69
2023/10/14 01:37:44;;;;;;;4.43;1.30;;;;;;;16.40;73.87;100280.81;5111814;28;20518;-69
2023/10/14 01:42:57;;;;;;;4.65;1.10;;;;;;;16.55;74.17;100300.16;5106696;28;19923;-69
2023/10/14 01:45:39;;;;;;;3.95;1.10;;;;;;;16.50;73.96;100297.44;5093640;28;20063;-69
2023/10/14 01:50:41;;;;;;;6.28;1.13;;;;;;;16.54;73.89;100320.91;5104079;28;20000;-69
2023/10/14 01:53:13;;;;;;;4.18;1.02;;;;;;;16.45;73.45;100317.97;5096619;28;20032;-69
2023/10/14 01:55:41;;;;;;;6.93;1.35;;;;;;;16.44;72.85;100321.91;5101062;28;20107;-69
2023/10/14 01:58:13;;;;;;;9.55;1.80;;;;;;;16.43;73.08;100342.66;5096476;28;20022;-69
2023/10/14 02:00:39;;;;;;;7.35;1.80;;;;;;;16.47;72.67;100348.50;5103614;28;20035;-69
2023/10/14 02:03:06;;;;;;;10.95;1.65;;;;;;;16.26;72.07;100364.75;5105043;28;20032;-70
2023/10/14 02:05:42;;;;;;;9.00;1.58;;;;;;;16.36;72.40;100359.00;5092490;28;20399;-69
2023/10/14 02:08:14;;;;;;;7.55;1.58;;;;;;;16.30;72.63;100363.00;5095007;28;20016;-69
2023/10/14 02:10:46;;;;;;;6.68;1.45;;;;;;;16.38;72.90;100375.50;5103167;28;20463;-70
2023/10/14 02:13:17;;;;;;;;;;;;;;;16.54;73.72;100390.94;5095501;28;20115;-70
2023/10/14 02:15:46;;;;;;;7.30;1.30;;;;;;;16.30;73.03;100393.81;5097453;28;19923;-69
2023/10/14 02:18:22;;;;;;;8.60;1.50;;;;;;;16.27;73.09;100386.06;5094664;28;20047;-69
2023/10/14 02:21:05;;;;;;;7.65;1.40;;;;;;;16.26;73.21;100409.56;5111918;28;20446;-69
2023/10/14 02:23:43;;;;;;;4.90;1.50;;;;;;;16.26;72.85;100409.56;5097813;28;20061;-69
2023/10/14 02:26:30;;;;;;;5.80;1.30;;;;;;;16.26;73.20;100414.34;5091806;28;20056;-69
2023/10/14 02:28:57;;;;;;;6.47;1.67;;;;;;;16.20;73.13;100419.19;5098686;28;20487;-69
2023/10/14 02:31:29;;;;;;;8.63;1.73;;;;;;;16.24;72.96;100434.25;5100518;28;20039;-69
2023/10/14 02:33:55;;;;;;;10.57;1.83;;;;;;;16.17;72.38;100439.38;5098643;28;20034;-69
2023/10/14 02:36:20;;;;;;;10.13;1.63;;;;;;;16.20;72.72;100450.81;5092021;28;20016;-69
2023/10/14 02:38:56;;;;;;;8.18;1.60;;;;;;;16.13;72.84;100455.13;5100849;28;20032;-69
2023/10/14 02:41:26;;;;;;;6.88;1.45;;;;;;;16.15;72.44;100453.69;5096234;28;20063;-69
2023/10/14 02:44:00;;;;;;;7.90;1.60;;;;;;;16.17;71.98;100462.63;5097639;28;20392;-69
2023/10/14 02:46:27;;;;;;;10.48;1.90;;;;;;;16.09;72.01;100482.06;5105165;28;20379;-69
2023/10/14 02:48:53;;;;;;;7.97;1.60;;;;;;;16.10;71.30;100480.91;5092767;28;20475;-69
2023/10/14 02:51:42;;;;;;;8.82;2.00;;;;;;;16.07;70.81;100485.16;5105671;28;20067;-69
2023/10/14 02:54:27;;;;;;;12.90;2.95;;;;;;;16.07;69.65;100495.50;5094153;28;20035;-69
2023/10/14 02:56:58;;;;;;;8.82;1.98;;;;;;;15.86;68.60;100504.16;5091278;28;20032;-70
2023/10/14 03:04:47;;;;;;;9.05;2.15;;;;;;;15.89;67.40;100531.53;5100567;28;20043;-69
2023/10/14 03:07:23;;;;;;;7.82;1.98;;;;;;;15.88;67.58;100545.84;5099131;28;20039;-69
2023/10/14 03:09:50;;;;;;;14.77;2.45;;;;;;;15.84;66.90;100547.56;5094290;28;20494;-69
2023/10/14 03:12:18;;;;;;;9.13;2.30;;;;;;;15.79;67.39;100556.81;5107342;28;20035;-69
2023/10/14 03:14:52;;;;;;;8.75;2.15;;;;;;;15.80;67.46;100560.47;5101770;28;20023;-69
2023/10/14 03:17:25;;;;;;;10.55;2.15;;;;;;;15.66;66.22;100565.91;5097523;28;20043;-69
2023/10/14 03:19:56;;;;;;;10.88;2.40;;;;;;;15.64;65.99;100577.38;5097484;28;20028;-69
2023/10/14 03:22:27;;;;;;;11.38;2.58;;;;;;;15.67;66.47;100582.41;5100908;28;20035;-69
2023/10/14 03:25:04;;;;;;;10.18;2.08;;;;;;;15.62;66.49;100585.22;5098950;28;20069;-69
2023/10/14 03:27:32;;;;;;;12.93;2.75;;;;;;;15.59;66.55;100608.19;5106790;28;20078;-69
2023/10/14 03:29:59;;;;;;;9.85;1.95;;;;;;;15.43;66.25;100598.25;5094282;28;20024;-69
2023/10/14 03:32:32;;;;;;;10.30;2.20;;;;;;;15.49;66.44;100611.09;5099947;28;20073;-69
2023/10/14 03:34:59;;;;;;;7.40;1.98;;;;;;;15.49;66.52;100611.09;5092214;28;20036;-69
2023/10/14 03:37:25;;;;;;;11.50;2.10;;;;;;;15.49;66.80;100613.06;5105627;28;20028;-69
2023/10/14 03:40:51;;;;;;;9.27;2.08;;;;;;;15.40;66.88;100621.19;5094453;28;20552;-69
2023/10/14 03:42:51;;;;;;;10.32;2.65;;;;;;;15.32;66.97;100633.84;5084305;28;20052;-69
2023/10/14 03:45:21;;;;;;;8.40;2.25;;;;;;;15.33;67.08;100637.50;5100435;28;20058;-69
2023/10/14 03:47:51;;;;;;;12.18;2.80;;;;;;;15.31;66.68;100643.38;5094930;28;20031;-69
2023/10/14 03:50:21;;;;;;;9.30;2.00;;;;;;;15.29;66.85;100651.22;5093598;28;20027;-69
2023/10/14 03:52:49;;;;;;;7.95;2.30;;;;;;;15.23;66.90;100656.00;5103730;28;20024;-69
2023/10/14 03:55:14;;;;;;;11.40;2.10;;;;;;;15.23;66.73;100657.97;5094895;28;20077;-69
2023/10/14 03:57:39;;;;;;;10.77;2.15;;;;;;;15.17;65.35;100664.72;5099604;28;20024;-68
2023/10/14 04:00:12;;;;;;;8.52;2.13;;;;;;;15.13;65.76;100664.47;5104929;28;20077;-69
2023/10/14 04:02:40;;;;;;;8.38;2.00;;;;;;;15.03;65.53;100672.88;5098101;28;20391;-69
2023/10/14 04:05:10;;;;;;;13.70;2.30;;;;;;;15.00;65.49;100673.47;5103334;28;20030;-69
2023/10/14 04:07:41;;;;;;;15.02;2.50;;;;;;;15.05;65.68;100675.38;5094033;28;20036;-69
2023/10/14 04:10:09;;;;;;;11.18;2.55;;;;;;;14.96;64.96;100689.97;5106391;28;20383;-69
2023/10/14 04:12:39;;;;;;;10.05;1.95;;;;;;;14.93;65.32;100690.56;5102446;28;20049;-69
2023/10/14 04:15:52;;;;;;;8.32;1.90;;;;;;;14.96;65.63;100701.13;5097123;28;20032;-69
2023/10/14 04:17:55;;;;;;;11.30;2.05;;;;;;;14.94;65.31;100709.00;5081785;28;20044;-69
2023/10/14 04:20:22;;;;;;;11.18;1.90;;;;;;;15.00;65.37;100711.75;5104436;28;20020;-69
2023/10/14 04:22:49;;;;;;;12.35;2.20;;;;;;;14.98;65.54;100720.44;5093852;28;20031;-68
2023/10/14 04:25:22;;;;;;;11.60;2.30;;;;;;;14.94;65.47;100724.94;5106966;28;20059;-68
2023/10/14 04:30:24;;;;;;;8.85;2.25;;;;;;;14.80;65.23;100730.28;5094415;28;20038;-69
2023/10/14 04:35:25;;;;;;;11.02;2.38;;;;;;;14.73;65.85;100740.91;5102885;28;20051;-69
2023/10/14 04:37:52;;;;;;;8.32;2.17;;;;;;;14.69;65.77;100743.41;5097975;28;20062;-69
2023/10/14 04:51:06;;;;;;;11.68;2.50;;;;;;;14.57;66.05;100778.38;5099414;28;20032;-70
2023/10/14 04:53:31;;;;;;;;;;;;;;;14.83;67.08;100784.75;5105220;28;20035;-69
2023/10/14 04:56:04;;;;;;;7.88;2.00;;;;;;;14.64;66.13;100784.50;5094932;28;19927;-65
2023/10/14 04:58:32;;;;;;;11.85;2.22;;;;;;;14.60;66.08;100778.66;5090487;28;20036;-66
2023/10/14 05:01:00;;;;;;;13.75;2.45;;;;;;;14.54;66.68;100793.75;5091680;28;20025;-66
2023/10/14 05:03:28;;;;;;;12.15;2.08;;;;;;;14.47;66.69;100798.75;5088727;28;20040;-67
2023/10/14 05:05:56;;;;;;;9.05;2.20;;;;;;;14.43;66.55;100808.81;5105678;28;20090;-70
2023/10/14 05:08:23;;;;;;;9.07;2.35;;;;;;;14.40;66.55;100812.16;5094026;28;20118;-71
2023/10/14 05:10:52;;;;;;;10.30;2.50;;;;;;;14.43;66.85;100815.22;5104655;28;20016;-69
2023/10/14 05:13:19;;;;;;;15.10;2.33;;;;;;;14.46;66.44;100814.69;5106070;28;20853;-72
2023/10/14 05:15:53;;;;;;;10.10;2.45;;;;;;;14.45;66.32;100818.56;5108916;28;20054;-73
2023/10/14 05:18:27;;;;;;;11.88;2.20;;;;;;;14.43;65.70;100831.16;5095274;28;20486;-70
2023/10/14 05:23:19;;;;;;;9.07;2.13;;;;;;;14.33;66.45;100845.94;5103354;28;20039;-70
2023/10/14 05:25:57;;;;;;;7.72;2.53;;;;;;;14.51;74.38;100850.19;5102098;28;20044;-70
2023/10/14 05:28:29;;;;;;;9.85;2.28;;;;;;;14.42;67.31;100851.78;5104759;28;20067;-71
2023/10/14 05:30:56;;;;;;;;;;;;;;;14.61;68.70;100850.16;5098202;28;20032;-70
2023/10/14 05:33:22;;;;;;;10.10;2.22;;;;;;;14.30;66.65;100854.88;5099481;28;20391;-70
2023/10/14 05:35:48;;;;;;;7.82;2.30;;;;;;;14.22;66.46;100853.47;5096433;28;20040;-71
2023/10/14 05:38:17;;;;;;;10.18;2.53;;;;;;;14.27;66.48;100861.03;5105630;28;20023;-72
2023/10/14 05:40:43;;;;;;;12.35;2.33;;;;;;;14.19;66.70;100865.19;5103370;28;20039;-69
2023/10/14 05:43:08;;;;;;;13.30;2.33;;;;;;;14.16;66.59;100870.50;5106228;28;20023;-69
2023/10/14 05:45:37;;;;;;;11.38;2.60;;;;;;;14.18;66.66;100863.50;5101626;28;20023;-67
2023/10/14 05:48:03;;;;;;;7.35;2.28;;;;;;;14.15;66.49;100874.41;5095000;28;20023;-67
2023/10/14 05:50:32;;;;;;;12.85;2.30;;;;;;;14.09;66.69;100886.66;5099621;28;20024;-67
2023/10/14 05:52:59;;;;;;;14.20;2.28;;;;;;;14.10;66.54;100885.53;5107726;28;20031;-67
2023/10/14 05:55:25;;;;;;;13.32;2.47;;;;;;;14.11;66.36;100890.88;5101252;28;20360;-67
2023/10/14 05:57:51;;;;;;;9.25;2.00;;;;;;;14.08;66.89;100891.41;5101774;28;20124;-68
2023/10/14 06:00:22;;;;;;;10.13;2.20;;;;;;;14.10;66.33;100899.50;5100521;28;20579;-68
2023/10/14 06:02:49;;;;;;;9.15;2.30;;;;;;;14.02;66.56;100903.66;5102634;28;20035;-68
2023/10/14 06:05:17;;;;;;;11.88;2.85;;;;;;;14.11;66.47;100913.19;5102444;28;20032;-68
2023/10/14 06:07:46;;;;;;;9.85;2.13;;;;;;;14.09;66.57;100920.16;5093388;28;20024;-67
2023/10/14 06:10:22;;;;;;;9.70;2.13;;;;;;;14.04;66.37;100917.38;5094527;28;20107;-67
2023/10/14 06:12:50;;;;;;;11.80;2.45;;;;;;;14.04;66.57;100925.75;5096253;28;20032;-65
2023/10/14 06:15:17;;;;;;;10.90;2.50;;;;;;;14.00;66.39;100931.84;5092772;28;20137;-68
2023/10/14 06:17:58;;;;;;;10.20;2.28;;;;;;;14.01;66.50;100941.06;5091076;28;20028;-68
2023/10/14 06:20:23;;;;;;;10.50;3.30;;;;;;;14.07;66.18;100951.16;5099870;28;20047;-68
2023/10/14 06:22:50;;;;;;;9.25;1.92;;;;;;;13.99;66.51;100949.72;5098890;28;20040;-68
2023/10/14 06:25:16;;;;;;;8.50;1.90;;;;;;;13.94;66.22;100949.69;5097628;28;20137;-68
2023/10/14 06:27:46;;;;;;;11.25;2.30;;;;;;;14.01;66.24;100957.81;5093815;28;20063;-68
2023/10/14 06:30:20;;;;;;;9.77;2.20;;;;;;;13.90;66.00;100961.66;5105670;28;20016;-68
2023/10/14 06:33:04;;;;;;;11.48;2.53;;;;;;;13.98;66.23;100963.94;5078539;28;20382;-68
2023/10/14 06:35:33;;;;;;;12.32;2.42;;;;;;;14.02;65.96;100973.44;5104371;28;20026;-68
2023/10/14 06:37:59;;;;;;;10.73;2.55;;;;;;;13.97;65.96;100979.84;5099172;28;20034;-68
2023/10/14 06:40:32;;;;;;;8.95;2.10;;;;;;;13.97;65.58;100987.38;5102428;28;20371;-68
2023/10/14 06:43:00;;;;;;;11.13;2.83;;;;;;;14.00;65.66;100987.69;5108002;28;20046;-68
2023/10/14 06:45:31;;;;;;;11.02;1.92;;;;;;;13.94;65.55;100997.13;5095635;28;20425;-68
2023/10/14 06:47:57;;;;;;;9.10;2.03;;;;;;;13.90;65.37;101001.56;5098845;28;20831;-68
2023/10/14 06:50:26;;;;;;;10.75;2.40;;;;;;;13.94;65.59;101008.28;5104731;28;20036;-68
2023/10/14 06:53:00;;;;;;;9.18;2.30;;;;;;;13.88;65.40;101014.13;5108772;28;20035;-70
2023/10/14 06:55:27;;;;;;;8.18;2.28;;;;;;;13.89;65.90;101015.81;5096328;28;20056;-69
2023/10/14 06:57:55;;;;;;;10.82;2.47;;;;;;;13.81;66.04;101030.28;5100117;28;20503;-69
2023/10/14 07:00:25;;;;;;;12.10;2.38;;;;;;;13.89;66.00;101038.13;5104317;28;20028;-69
2023/10/14 07:02:54;;;;;;;9.63;2.17;;;;;;;13.89;66.14;101030.59;5098658;28;20054;-67
2023/10/14 07:05:20;;;;;;;13.07;2.28;;;;;;;13.84;65.86;101050.09;5101596;28;20155;-67
2023/10/14 07:07:48;;;;;;;12.73;2.22;;;;;;;13.83;66.09;101045.63;5090722;28;20542;-67
2023/10/14 07:10:14;;;;;;;8.60;1.95;;;;;;;13.84;66.10;101047.31;5090853;28;20035;-67
2023/10/14 07:12:39;;;;;;;12.23;2.40;;;;;;;13.86;66.21;101053.44;5089459;28;20036;-67
2023/10/14 07:15:12;;;;;;;8.55;2.50;;;;;;;13.82;66.42;101049.53;5103420;28;20080;-67
2023/10/14 07:17:40;;;;;;;11.55;2.50;;;;;;;13.80;66.12;101057.34;5101850;28;20419;-67
2023/10/14 07:20:07;;;;;;;11.07;2.20;;;;;;;13.82;65.90;101063.47;5099284;28;20036;-67
2023/10/14 07:22:32;;;;;;;10.90;2.35;;;;;;;13.84;66.41;101066.84;5099651;27;20484;-67
2023/10/14 07:24:57;;;;;;;11.40;2.58;;;;;;;13.89;65.66;101072.44;5107695;27;20089;-66
2023/10/14 07:27:26;;;;;;;12.57;2.10;;;;;;;13.83;66.83;101081.88;5114721;27;20042;-67
2023/10/14 07:29:51;;;;;;;8.40;2.30;;;;;;;13.89;66.29;101082.78;5096121;28;20051;-68
2023/10/14 07:32:19;;;;;;;14.45;2.70;;;;;;;13.91;66.05;101081.41;5104889;28;20036;-66
2023/10/14 07:34:44;;;;;;;11.65;3.20;;;;;;;13.92;66.16;101088.66;5092744;28;20058;-69
2023/10/14 07:37:10;;;;;;;11.05;3.03;;;;;;;14.33;79.05;101083.28;5104220;28;20450;-67
2023/10/14 07:39:36;;;;;;;8.48;2.70;;;;;;;14.59;80.06;101095.44;5097595;28;20479;-67
2023/10/14 07:42:09;;;;;;;11.35;2.72;;;;;;;14.77;78.61;101088.47;5104493;28;20098;-68
2023/10/14 07:44:44;;;;;;;11.77;2.75;;;;;;;14.92;78.03;101096.91;5094365;28;20100;-67
2023/10/14 07:47:10;;;;;;;9.23;2.53;;;;;;;15.04;76.21;101096.66;5091512;28;20047;-67
2023/10/14 07:49:38;;;;;;;10.48;2.60;;;;;;;15.20;75.78;101105.91;5093397;28;20024;-67
2023/10/14 07:52:06;;;;;;;11.35;2.60;;;;;;;15.30;73.28;101107.88;5095032;28;20023;-66
2023/10/14 07:54:31;;;;;;;8.57;2.50;;;;;;;15.20;67.45;101108.69;5095012;28;20028;-66
2023/10/14 07:56:57;;;;;;;8.80;2.42;;;;;;;15.36;70.44;101112.34;5093728;28;20115;-66
2023/10/14 07:59:23;;;;;;;10.10;3.25;;;;;;;15.19;64.60;101118.19;5104571;28;20023;-63
2023/10/14 08:01:48;;;;;;;8.95;2.53;;;;;;;15.41;68.13;101120.75;5094339;28;20039;-63
2023/10/14 08:04:14;;;;;;;11.07;2.83;;;;;;;15.33;63.53;101130.53;5093669;28;20024;-63
2023/10/14 08:06:40;;;;;;;14.95;2.92;;;;;;;15.25;62.69;101121.84;5095780;28;20162;-62
2023/10/14 08:09:15;;;;;;;14.88;2.65;;;;;;;15.25;62.74;101130.22;5102599;28;20570;-63
2023/10/14 08:11:41;;;;;;;14.23;2.78;;;;;;;15.18;62.48;101134.16;5106791;28;20023;-63
2023/10/14 08:14:06;;;;;;;11.20;2.45;;;;;;;15.20;62.37;101128.25;5096328;28;20035;-62
2023/10/14 08:16:32;;;;;;;10.63;2.35;;;;;;;15.24;62.29;101137.78;5100016;28;20028;-63
2023/10/14 08:18:57;;;;;;;10.60;2.38;;;;;;;15.26;61.71;101141.16;5104328;28;20061;-66
2023/10/14 08:21:22;;;;;;;14.15;2.45;;;;;;;15.26;61.48;101145.91;5094938;28;20032;-66
2023/10/14 08:23:48;;;;;;;8.70;2.08;;;;;;;15.25;61.55;101147.88;5106802;28;20077;-66
2023/10/14 08:26:13;;;;;;;17.27;3.00;;;;;;;15.31;61.55;101149.53;5100445;28;20036;-66
2023/10/14 08:28:38;;;;;;;12.43;2.92;;;;;;;15.31;61.24;101160.72;5090371;28;20032;-66
2023/10/14 08:31:06;;;;;;;10.05;2.55;;;;;;;15.33;60.55;101163.25;5093141;28;20170;-66
2023/10/14 08:33:32;;;;;;;12.30;2.47;;;;;;;15.31;60.68;101157.94;5095977;28;20147;-66
2023/10/14 08:35:57;;;;;;;11.73;2.75;;;;;;;15.42;60.39;101170.81;5099801;28;20554;-66
2023/10/14 08:38:23;;;;;;;10.82;2.60;;;;;;;15.38;60.28;101172.50;5097161;28;20016;-67
2023/10/14 08:40:59;;;;;;;11.10;2.15;;;;;;;15.43;60.54;101166.88;5101151;28;20028;-66
2023/10/14 08:43:26;;;;;;;11.77;2.55;;;;;;;15.49;60.67;101175.31;5094496;28;20092;-66
2023/10/14 08:45:53;;;;;;;10.50;2.80;;;;;;;15.52;60.25;101183.97;5110020;28;20042;-66
2023/10/14 08:48:23;;;;;;;11.15;2.60;;;;;;;15.61;60.18;101187.91;5108998;28;20073;-66
2023/10/14 08:50:52;;;;;;;9.43;2.33;;;;;;;15.71;59.33;101189.88;5099700;28;20048;-66
2023/10/14 08:53:17;;;;;;;12.30;2.33;;;;;;;15.73;59.08;101196.06;5107072;28;20157;-66
2023/10/14 08:55:58;;;;;;;11.38;2.67;;;;;;;15.75;59.50;101199.41;5097585;28;20040;-62
2023/10/14 08:58:24;;;;;;;12.32;2.55;;;;;;;15.83;59.43;101201.63;5099486;28;20531;-65
2023/10/14 09:00:52;;;;;;;10.63;2.70;;;;;;;15.86;58.92;101195.50;5097294;28;20384;-66
2023/10/14 09:03:17;;;;;;;11.07;2.50;;;;;;;15.93;58.83;101209.22;5094789;28;20108;-65
2023/10/14 09:05:46;;;;;;;12.68;2.53;;;;;;;15.93;57.90;101206.41;5101301;28;20463;-66
2023/10/14 09:08:14;;;;;;;10.45;2.17;;;;;;;15.98;58.22;101219.56;5100482;28;20031;-65
2023/10/14 09:10:40;;;;;;;13.30;2.30;;;;;;;16.03;58.41;101212.00;5097475;28;20039;-65
2023/10/14 09:13:08;;;;;;;11.25;2.13;;;;;;;16.06;57.67;101213.41;5104278;28;20036;-65
2023/10/14 09:15:39;;;;;;;9.32;2.20;;;;;;;16.01;57.77;101219.00;5100811;28;20035;-66
2023/10/14 09:18:18;;;;;;;13.35;2.70;;;;;;;16.09;58.16;101218.44;5096316;28;20031;-68
2023/10/14 09:20:44;;;;;;;11.13;2.10;;;;;;;16.06;57.25;101222.63;5099258;28;20028;-66
2023/10/14 09:23:39;;;;;;;8.38;1.85;;;;;;;16.14;57.93;101219.25;5101002;28;20111;-66
2023/10/14 09:26:05;;;;;;;14.82;2.40;;;;;;;16.22;57.33;101225.41;5096140;28;20047;-66
2023/10/14 09:28:35;;;;;;;11.88;2.53;;;;;;;16.17;56.10;101220.66;5099326;28;20028;-66
2023/10/14 09:31:08;;;;;;;10.48;2.60;;;;;;;16.21;56.45;101216.19;5100554;28;20147;-68
2023/10/14 09:33:42;;;;;;;13.60;2.67;;;;;;;16.17;56.32;101220.66;5106151;28;20038;-68
2023/10/14 09:36:13;;;;;;;9.18;2.40;;;;;;;16.21;55.72;101221.78;5103011;28;20046;-68
2023/10/14 09:38:39;;;;;;;11.13;2.53;;;;;;;16.30;55.96;101222.03;5102096;28;20016;-68
2023/10/14 09:41:10;;;;;;;12.60;2.28;;;;;;;16.35;55.56;101233.25;5103136;28;20440;-67
2023/10/14 09:43:39;;;;;;;10.20;2.30;;;;;;;16.40;55.36;101227.66;5101264;28;20056;-68
2023/10/14 09:46:10;;;;;;;11.05;2.50;;;;;;;16.47;55.11;101231.00;5102615;28;20024;-69
2023/10/14 09:48:36;;;;;;;13.38;2.42;;;;;;;16.44;54.20;101232.41;5098433;28;20036;-66
2023/10/14 09:51:03;;;;;;;15.20;2.47;;;;;;;16.48;53.01;101237.44;5100458;28;20026;-67
2023/10/14 09:53:32;;;;;;;11.65;2.38;;;;;;;16.48;53.15;101232.66;5094267;28;20499;-68
2023/10/14 09:56:04;;;;;;;11.55;2.28;;;;;;;16.53;52.99;101237.41;5095346;28;20032;-66
2023/10/14 09:58:30;;;;;;;;;;;;;;;16.72;56.71;101255.31;5090732;28;20030;-67
2023/10/14 10:00:59;;;;;;;8.52;1.90;;;;;;;16.62;51.93;101246.91;5090798;28;20401;-65
2023/10/14 10:03:32;;;;;;;10.88;2.28;;;;;;;16.64;52.96;101242.72;5095543;28;20043;-64
2023/10/14 10:06:33;;;;;;;8.27;1.95;;;;;;;16.73;53.82;101244.94;5106969;28;20032;-66
2023/10/14 10:09:07;;;;;;;7.43;2.20;;;;;;;16.73;50.86;101257.00;5096438;28;20027;-67
2023/10/14 10:11:36;;;;;;;11.30;2.35;;;;;;;16.74;49.81;101257.84;5103907;28;20020;-67
2023/10/14 10:14:05;;;;;;;11.65;2.20;;;;;;;16.72;49.43;101251.66;5092769;28;20032;-66
2023/10/14 10:16:32;;;;;;;9.38;1.95;;;;;;;16.72;50.27;101255.31;5096327;28;20186;-66
2023/10/14 10:18:59;;;;;;;11.68;2.33;;;;;;;16.78;50.84;101254.22;5093794;28;20047;-66
2023/10/14 10:21:32;;;;;;;8.77;1.88;;;;;;;16.83;49.08;101254.19;5091779;28;20027;-69
2023/10/14 10:24:24;;;;;;;7.68;1.90;;;;;;;16.90;51.25;101268.75;5098467;28;20038;-67
2023/10/14 10:26:57;;;;;;;8.45;1.60;;;;;;;16.93;49.91;101268.16;5104178;28;20154;-67
2023/10/14 10:29:22;;;;;;;7.50;1.80;;;;;;;16.92;49.51;101268.44;5090454;28;20379;-67
2023/10/14 10:32:07;;;;;;;8.68;2.22;;;;;;;16.97;50.11;101265.63;5093989;28;20032;-68
2023/10/14 10:34:33;;;;;;;8.60;2.13;;;;;;;16.93;47.42;101265.34;5096377;28;20032;-68
2023/10/14 10:36:59;;;;;;;7.13;1.95;;;;;;;16.92;46.72;101274.06;5106914;28;20085;-66
2023/10/14 10:39:28;;;;;;;8.25;2.13;;;;;;;16.92;47.41;101274.91;5091643;28;20049;-70
2023/10/14 10:41:54;;;;;;;6.85;1.80;;;;;;;16.91;48.11;101278.00;5095389;28;20035;-70
2023/10/14 10:44:19;;;;;;;9.10;2.05;;;;;;;16.96;48.75;101280.78;5095014;28;20038;-68
2023/10/14 10:46:50;;;;;;;9.38;2.33;;;;;;;16.92;48.47;101291.72;5100197;28;20432;-67
2023/10/14 10:49:37;;;;;;;8.40;2.17;;;;;;;16.80;47.78;101294.00;5097468;28;20113;-70
2023/10/14 10:52:13;;;;;;;6.90;1.70;;;;;;;16.66;48.00;101287.25;5093025;28;20103;-68
2023/10/14 10:54:42;;;;;;;9.73;1.95;;;;;;;16.52;48.09;101291.78;5094803;28;20043;-66
2023/10/14 10:57:07;;;;;;;9.00;2.35;;;;;;;16.48;48.33;101299.09;5096893;28;20423;-68
2023/10/14 10:59:36;;;;;;;8.98;1.75;;;;;;;16.57;49.02;101286.16;5089789;28;20020;-68
2023/10/14 11:02:02;;;;;;;10.75;2.00;;;;;;;16.62;48.50;101291.75;5097379;28;20172;-68
2023/10/14 11:04:30;;;;;;;6.53;1.67;;;;;;;16.65;47.86;101302.41;5093130;28;20570;-67
2023/10/14 11:06:55;;;;;;;10.50;2.00;;;;;;;16.70;48.62;101293.97;5091849;28;20115;-68
2023/10/14 11:09:21;;;;;;;11.35;2.30;;;;;;;16.73;48.74;101293.44;5097967;28;20114;-63
2023/10/14 11:11:46;;;;;;;8.20;1.90;;;;;;;16.77;48.06;101314.19;5096308;28;20027;-67
2023/10/14 11:14:19;;;;;;;7.18;2.10;;;;;;;16.77;48.37;101300.16;5092841;28;20841;-68
2023/10/14 11:16:52;;;;;;;12.02;2.40;;;;;;;16.82;48.75;101305.78;5095461;28;20055;-68
2023/10/14 11:19:20;;;;;;;8.95;2.00;;;;;;;16.83;48.53;101295.41;5098086;28;20032;-66
2023/10/14 11:21:46;;;;;;;8.65;1.92;;;;;;;16.85;47.98;101293.13;5092445;28;20032;-67
2023/10/14 11:24:16;;;;;;;10.15;2.45;;;;;;;16.80;47.97;101304.38;5096870;28;20036;-67
2023/10/14 11:26:44;;;;;;;11.00;3.30;;;;;;;16.86;49.06;101298.47;5094691;28;20120;-68
2023/10/14 11:29:10;;;;;;;9.25;1.77;;;;;;;16.90;48.39;101309.97;5097377;28;20467;-68
2023/10/14 11:31:36;;;;;;;9.25;2.03;;;;;;;16.89;47.57;101295.09;5101240;28;20039;-67
2023/10/14 11:34:01;;;;;;;8.70;1.90;;;;;;;16.92;47.91;101293.69;5096987;28;20054;-67
2023/10/14 11:36:27;;;;;;;10.00;2.22;;;;;;;16.97;45.84;101299.28;5093262;28;20386;-61
2023/10/14 11:38:58;;;;;;;5.80;1.48;;;;;;;16.97;45.39;101293.66;5092697;28;20707;-62
2023/10/14 11:41:26;;;;;;;7.63;1.63;;;;;;;16.98;45.65;101294.50;5102782;28;20032;-67
2023/10/14 11:43:51;;;;;;;9.25;2.13;;;;;;;16.96;45.34;101302.38;5098030;28;20107;-68
2023/10/14 11:46:17;;;;;;;7.50;2.28;;;;;;;16.95;46.31;101303.50;5094179;28;20115;-69
2023/10/14 11:48:47;;;;;;;9.13;1.88;;;;;;;16.86;47.17;101306.91;5100011;28;20455;-68
2023/10/14 11:51:21;;;;;;;10.38;2.53;;;;;;;16.78;47.32;101313.09;5094233;28;20084;-70
2023/10/14 11:53:52;;;;;;;9.45;2.38;;;;;;;16.77;47.11;101314.19;5099788;28;20843;-68
2023/10/14 11:56:23;;;;;;;6.85;2.30;;;;;;;16.72;47.19;101314.16;5104509;28;20042;-67
2023/10/14 11:58:49;;;;;;;8.85;2.17;;;;;;;16.68;47.68;101318.66;5095933;28;20039;-69
2023/10/14 12:01:15;;;;;;;9.23;2.15;;;;;;;16.65;48.27;101313.63;5099940;28;20466;-66
2023/10/14 12:03:40;;;;;;;12.00;2.40;;;;;;;16.66;48.88;101313.34;5098694;28;20063;-69
2023/10/14 12:06:08;;;;;;;13.65;2.45;;;;;;;16.71;49.28;101315.31;5100121;28;20111;-68